createdAt,value
2023-03-25T00:01:09.405Z,8.70
2023-03-25T00:03:39.042Z,8.60
2023-03-25T00:06:12.742Z,8.60
2023-03-25T00:08:41.375Z,8.60
2023-03-25T00:11:09.764Z,8.60
2023-03-25T00:13:37.862Z,8.70
2023-03-25T00:16:07.425Z,8.70
2023-03-25T00:18:37.683Z,8.70
2023-03-25T00:21:10.950Z,8.70
2023-03-25T00:23:41.885Z,8.70
2023-03-25T00:26:10.365Z,8.80
2023-03-25T00:28:39.586Z,8.90
2023-03-25T00:31:10.638Z,8.90
2023-03-25T00:33:41.968Z,8.90
2023-03-25T00:36:13.986Z,9.00
2023-03-25T00:38:43.853Z,8.90
2023-03-25T00:41:23.449Z,9.00
2023-03-25T00:43:53.771Z,8.90
2023-03-25T00:46:23.068Z,8.90
2023-03-25T00:48:52.682Z,8.90
2023-03-25T00:51:21.586Z,8.90
2023-03-25T00:53:53.569Z,8.90
2023-03-25T00:56:22.006Z,8.90
2023-03-25T00:58:50.105Z,8.90
2023-03-25T01:01:23.536Z,8.90
2023-03-25T01:03:57.844Z,9.00
2023-03-25T01:06:30.024Z,9.00
2023-03-25T01:09:00.845Z,8.90
2023-03-25T01:11:30.933Z,8.90
2023-03-25T01:14:00.271Z,8.90
2023-03-25T01:16:29.148Z,8.90
2023-03-25T01:18:57.694Z,8.90
2023-03-25T01:21:25.997Z,8.90
2023-03-25T01:23:54.417Z,8.90
2023-03-25T01:26:23.919Z,8.90
2023-03-25T01:28:52.023Z,9.00
2023-03-25T01:31:20.477Z,8.90
2023-03-25T01:33:48.546Z,8.90
2023-03-25T01:36:17.673Z,9.00
2023-03-25T01:38:48.057Z,9.00
2023-03-25T01:41:16.596Z,9.00
2023-03-25T01:44:05.130Z,8.90
2023-03-25T01:46:33.567Z,9.00
2023-03-25T01:49:04.284Z,8.90
2023-03-25T01:51:36.193Z,8.90
2023-03-25T01:54:05.584Z,8.90
2023-03-25T01:56:37.296Z,8.90
2023-03-25T01:59:09.999Z,8.80
2023-03-25T02:01:38.848Z,8.90
2023-03-25T02:04:12.088Z,8.90
2023-03-25T02:06:44.767Z,8.90
2023-03-25T02:09:15.947Z,8.80
2023-03-25T02:11:44.007Z,8.80
2023-03-25T02:14:17.928Z,8.80
2023-03-25T02:16:51.929Z,8.80
2023-03-25T02:19:47.235Z,8.90
2023-03-25T02:22:50.080Z,8.90
2023-03-25T02:25:48.049Z,8.90
2023-03-25T02:28:26.247Z,8.90
2023-03-25T02:31:15.878Z,9.00
2023-03-25T02:34:15.415Z,9.00
2023-03-25T02:37:05.372Z,9.00
2023-03-25T02:39:42.218Z,9.00
2023-03-25T02:42:18.094Z,9.10
2023-03-25T02:44:53.011Z,9.20
2023-03-25T02:47:24.149Z,9.20
2023-03-25T02:49:57.291Z,9.30
2023-03-25T02:52:28.644Z,9.30
2023-03-25T02:55:04.626Z,9.30
2023-03-25T02:57:35.938Z,9.20
2023-03-25T03:00:10.378Z,9.20
2023-03-25T03:02:39.964Z,9.20
2023-03-25T03:05:24.074Z,9.30
2023-03-25T03:07:56.224Z,9.40
2023-03-25T03:10:27.830Z,9.30
2023-03-25T03:13:06.854Z,9.30
2023-03-25T03:15:43.871Z,9.30
2023-03-25T03:18:21.291Z,9.30
2023-03-25T03:21:00.771Z,9.30
2023-03-25T03:23:33.848Z,9.30
2023-03-25T03:26:09.794Z,9.30
2023-03-25T03:28:45.551Z,9.30
2023-03-25T03:31:59.808Z,9.40
2023-03-25T03:34:14.789Z,9.40
2023-03-25T03:36:48.494Z,9.40
2023-03-25T03:39:20.912Z,9.40
2023-03-25T03:41:54.731Z,9.40
2023-03-25T03:44:27.239Z,9.40
2023-03-25T03:47:00.241Z,9.40
2023-03-25T03:49:34.852Z,9.40
2023-03-25T03:52:08.919Z,9.40
2023-03-25T03:54:42.647Z,9.40
2023-03-25T03:57:17.495Z,9.40
2023-03-25T03:59:50.569Z,9.40
2023-03-25T04:02:27.517Z,9.40
2023-03-25T04:05:00.921Z,9.40
2023-03-25T04:07:38.948Z,9.40
2023-03-25T04:10:15.146Z,9.40
2023-03-25T04:12:47.751Z,9.40
2023-03-25T04:15:16.397Z,9.40
2023-03-25T04:17:44.618Z,9.40
2023-03-25T04:20:16.942Z,9.40
2023-03-25T04:22:46.155Z,9.40
2023-03-25T04:25:15.188Z,9.40
2023-03-25T04:27:48.835Z,9.40
2023-03-25T04:30:19.255Z,9.40
2023-03-25T04:32:48.670Z,9.40
2023-03-25T04:35:18.705Z,9.30
2023-03-25T04:37:49.057Z,9.30
2023-03-25T04:40:18.976Z,9.30
2023-03-25T04:42:49.072Z,9.30
2023-03-25T04:45:17.778Z,9.30
2023-03-25T04:47:48.749Z,9.20
2023-03-25T04:50:22.239Z,9.20
2023-03-25T04:52:50.670Z,9.20
2023-03-25T04:55:19.626Z,9.20
2023-03-25T04:57:51.600Z,9.20
2023-03-25T05:00:22.211Z,9.20
2023-03-25T05:02:51.976Z,9.10
2023-03-25T05:05:22.591Z,9.10
2023-03-25T05:07:52.401Z,9.10
2023-03-25T05:10:21.936Z,9.10
2023-03-25T05:12:51.711Z,9.10
2023-03-25T05:15:19.904Z,9.00
2023-03-25T05:17:48.078Z,9.00
2023-03-25T05:20:16.429Z,9.00
2023-03-25T05:22:45.723Z,9.00
2023-03-25T05:25:14.307Z,9.00
2023-03-25T05:27:42.476Z,9.00
2023-03-25T05:30:13.261Z,9.00
2023-03-25T05:32:42.149Z,9.00
2023-03-25T05:35:11.464Z,9.00
2023-03-25T05:37:39.854Z,9.00
2023-03-25T05:40:14.695Z,9.00
2023-03-25T05:42:49.256Z,9.00
2023-03-25T05:45:18.830Z,9.00
2023-03-25T05:47:47.158Z,9.00
2023-03-25T05:50:15.944Z,9.00
2023-03-25T05:52:44.464Z,9.00
2023-03-25T05:55:15.966Z,9.10
2023-03-25T05:57:44.327Z,9.10
2023-03-25T06:00:15.571Z,9.10
2023-03-25T06:02:45.403Z,9.20
2023-03-25T06:05:14.952Z,9.20
2023-03-25T06:07:44.261Z,9.20
2023-03-25T06:10:12.943Z,9.20
2023-03-25T06:12:41.282Z,9.20
2023-03-25T06:15:11.417Z,9.20
2023-03-25T06:17:39.661Z,9.10
2023-03-25T06:20:12.928Z,9.10
2023-03-25T06:22:43.101Z,9.10
2023-03-25T06:25:12.209Z,9.00
2023-03-25T06:27:42.036Z,9.00
2023-03-25T06:30:12.571Z,9.00
2023-03-25T06:32:41.558Z,9.10
2023-03-25T06:35:12.653Z,9.10
2023-03-25T06:37:41.213Z,9.10
2023-03-25T06:40:10.767Z,9.10
2023-03-25T06:42:38.840Z,9.10
2023-03-25T06:45:08.242Z,9.10
2023-03-25T06:47:36.706Z,9.10
2023-03-25T06:50:05.757Z,9.10
2023-03-25T06:52:35.965Z,9.10
2023-03-25T06:55:04.756Z,9.10
2023-03-25T06:57:32.855Z,9.00
2023-03-25T07:00:01.270Z,8.90
2023-03-25T07:02:29.372Z,8.90
2023-03-25T07:04:57.516Z,9.00
2023-03-25T07:07:25.664Z,9.00
2023-03-25T07:09:56.045Z,9.10
2023-03-25T07:12:24.866Z,9.20
2023-03-25T07:14:53.590Z,9.20
2023-03-25T07:17:22.959Z,9.30
2023-03-25T07:19:51.407Z,9.30
2023-03-25T07:22:20.027Z,9.20
2023-03-25T07:24:48.150Z,9.30
2023-03-25T07:27:17.862Z,9.30
2023-03-25T07:29:46.417Z,9.40
2023-03-25T07:32:14.809Z,9.40
2023-03-25T07:34:43.217Z,9.50
2023-03-25T07:37:11.586Z,9.60
2023-03-25T07:39:39.736Z,9.60
2023-03-25T07:42:07.855Z,9.70
2023-03-25T07:44:37.343Z,9.80
2023-03-25T07:47:05.668Z,9.80
2023-03-25T07:49:34.065Z,9.80
2023-03-25T07:52:02.152Z,9.80
2023-03-25T07:54:30.518Z,9.80
2023-03-25T07:56:58.882Z,9.80
2023-03-25T07:59:29.269Z,9.80
2023-03-25T08:01:59.105Z,9.80
2023-03-25T08:04:27.296Z,9.80
2023-03-25T08:06:55.491Z,9.80
2023-03-25T08:09:23.992Z,9.90
2023-03-25T08:11:52.070Z,9.90
2023-03-25T08:14:20.182Z,9.90
2023-03-25T08:16:48.631Z,10.00
2023-03-25T08:19:18.154Z,10.00
2023-03-25T08:21:46.268Z,10.00
2023-03-25T08:24:14.861Z,10.20
2023-03-25T08:26:43.714Z,10.40
2023-03-25T08:29:12.238Z,10.90
2023-03-25T08:31:40.802Z,11.10
2023-03-25T08:34:08.876Z,11.00
2023-03-25T08:36:39.675Z,11.10
2023-03-25T08:39:11.866Z,11.00
2023-03-25T08:41:40.890Z,10.90
2023-03-25T08:44:09.379Z,10.80
2023-03-25T08:46:38.018Z,10.70
2023-03-25T08:49:07.071Z,10.70
2023-03-25T08:51:35.339Z,10.50
2023-03-25T08:54:05.053Z,10.40
2023-03-25T08:56:33.524Z,10.40
2023-03-25T08:59:01.691Z,10.50
2023-03-25T09:01:29.929Z,10.60
2023-03-25T09:03:58.519Z,10.90
2023-03-25T09:06:27.235Z,11.20
2023-03-25T09:08:56.281Z,11.40
2023-03-25T09:11:36.009Z,11.40
2023-03-25T09:14:05.106Z,11.40
2023-03-25T09:16:33.411Z,11.40
2023-03-25T09:19:02.091Z,11.40
2023-03-25T09:21:30.580Z,11.30
2023-03-25T09:23:58.707Z,11.40
2023-03-25T09:26:28.724Z,11.30
2023-03-25T09:28:57.408Z,11.40
2023-03-25T09:31:26.411Z,11.30
2023-03-25T09:33:54.610Z,11.20
2023-03-25T09:36:22.963Z,11.20
2023-03-25T09:38:51.648Z,11.10
2023-03-25T09:41:36.350Z,11.00
2023-03-25T09:44:15.234Z,10.80
2023-03-25T09:46:45.080Z,10.50
2023-03-25T09:49:18.380Z,10.40
2023-03-25T09:51:49.508Z,10.40
2023-03-25T09:54:23.967Z,10.40
2023-03-25T09:56:56.621Z,10.30
2023-03-25T09:59:34.109Z,10.50
2023-03-25T10:02:09.937Z,10.50
2023-03-25T10:05:00.711Z,10.50
2023-03-25T10:07:44.633Z,10.80
2023-03-25T10:10:22.348Z,10.90
2023-03-25T10:13:03.564Z,11.00
2023-03-25T10:15:37.549Z,11.10
2023-03-25T10:18:20.419Z,11.20
2023-03-25T10:20:55.911Z,11.10
2023-03-25T10:23:32.207Z,11.10
2023-03-25T10:26:07.752Z,11.00
2023-03-25T10:28:43.686Z,10.90
2023-03-25T10:31:18.848Z,10.60
2023-03-25T10:33:52.735Z,10.50
2023-03-25T10:36:25.273Z,10.40
2023-03-25T10:38:56.014Z,10.10
2023-03-25T10:41:28.147Z,10.10
2023-03-25T10:43:57.757Z,10.10
2023-03-25T10:46:32.926Z,9.90
2023-03-25T10:49:01.484Z,9.90
2023-03-25T10:51:33.017Z,10.10
2023-03-25T10:54:01.745Z,10.00
2023-03-25T10:56:34.808Z,10.10
2023-03-25T10:59:14.010Z,10.30
2023-03-25T11:01:44.358Z,10.40
2023-03-25T11:04:16.782Z,10.60
2023-03-25T11:06:47.383Z,10.60
2023-03-25T11:09:25.437Z,10.70
2023-03-25T11:11:55.097Z,10.90
2023-03-25T11:14:27.807Z,11.10
2023-03-25T11:16:58.598Z,11.40
2023-03-25T11:19:29.769Z,11.50
2023-03-25T11:22:03.146Z,11.40
2023-03-25T11:24:34.031Z,11.40
2023-03-25T11:27:04.684Z,11.40
2023-03-25T11:29:35.296Z,11.40
2023-03-25T11:32:09.792Z,11.70
2023-03-25T11:34:42.603Z,12.00
2023-03-25T11:37:18.967Z,12.40
2023-03-25T11:39:55.657Z,12.30
2023-03-25T11:42:33.379Z,12.50
2023-03-25T11:45:04.003Z,12.40
2023-03-25T11:47:34.683Z,12.20
2023-03-25T11:50:03.595Z,12.10
2023-03-25T11:52:39.348Z,12.10
2023-03-25T11:55:08.601Z,12.20
2023-03-25T11:57:41.132Z,12.20
2023-03-25T12:00:23.284Z,12.40
2023-03-25T12:03:01.202Z,12.40
2023-03-25T12:05:29.592Z,12.40
2023-03-25T12:08:07.232Z,12.40
2023-03-25T12:10:49.894Z,12.40
2023-03-25T12:13:37.786Z,12.40
2023-03-25T12:16:21.234Z,12.20
2023-03-25T12:19:17.572Z,12.20
2023-03-25T12:22:06.636Z,12.20
2023-03-25T12:25:01.446Z,12.20
2023-03-25T12:27:40.855Z,12.30
2023-03-25T12:30:21.022Z,12.40
2023-03-25T12:33:00.353Z,12.40
2023-03-25T12:35:38.838Z,12.40
2023-03-25T12:38:34.334Z,12.40
2023-03-25T12:41:17.165Z,12.40
2023-03-25T12:43:59.911Z,12.70
2023-03-25T12:46:50.980Z,13.10
2023-03-25T12:49:38.183Z,13.10
2023-03-25T12:52:13.144Z,12.90
2023-03-25T12:54:54.171Z,12.90
2023-03-25T12:57:37.874Z,12.90
2023-03-25T13:00:30.350Z,12.90
2023-03-25T13:03:29.840Z,12.90
2023-03-25T13:06:06.373Z,12.80
2023-03-25T13:08:43.292Z,12.70
2023-03-25T13:11:16.599Z,12.80
2023-03-25T13:13:47.675Z,12.70
2023-03-25T13:16:20.173Z,12.80
2023-03-25T13:18:51.699Z,12.90
2023-03-25T13:21:24.690Z,12.80
2023-03-25T13:23:57.789Z,12.90
2023-03-25T13:26:29.835Z,13.00
2023-03-25T13:29:01.808Z,13.10
2023-03-25T13:31:35.492Z,13.00
2023-03-25T13:34:14.204Z,13.20
2023-03-25T13:36:46.037Z,13.20
2023-03-25T13:39:18.781Z,13.20
2023-03-25T13:41:53.460Z,13.00
2023-03-25T13:44:27.595Z,13.00
2023-03-25T13:47:02.590Z,13.10
2023-03-25T13:49:35.805Z,13.20
2023-03-25T13:52:07.529Z,12.90
2023-03-25T13:54:39.249Z,12.80
2023-03-25T13:57:45.472Z,13.00
2023-03-25T14:00:33.987Z,13.10
2023-03-25T14:03:29.562Z,13.30
2023-03-25T14:06:30.196Z,13.40
2023-03-25T14:09:34.698Z,13.50
2023-03-25T14:12:08.638Z,13.50
2023-03-25T14:14:41.962Z,13.60
2023-03-25T14:17:12.290Z,13.80
2023-03-25T14:19:45.405Z,13.80
2023-03-25T14:22:18.110Z,13.80
2023-03-25T14:24:49.004Z,13.70
2023-03-25T14:27:20.090Z,13.70
2023-03-25T14:29:56.294Z,13.80
2023-03-25T14:32:34.224Z,13.80
2023-03-25T14:35:41.678Z,13.80
2023-03-25T14:38:43.294Z,13.40
2023-03-25T14:41:15.216Z,13.30
2023-03-25T14:43:47.522Z,13.40
2023-03-25T14:46:20.661Z,13.10
2023-03-25T14:48:55.064Z,13.00
2023-03-25T14:51:59.015Z,12.70
2023-03-25T14:54:33.264Z,12.50
2023-03-25T14:57:08.440Z,12.00
2023-03-25T14:59:40.988Z,11.60
2023-03-25T15:02:18.099Z,11.30
2023-03-25T15:04:53.116Z,11.30
2023-03-25T15:07:43.387Z,11.20
2023-03-25T15:10:22.595Z,11.00
2023-03-25T15:12:55.808Z,11.40
2023-03-25T15:15:32.000Z,11.30
2023-03-25T15:18:00.685Z,11.20
2023-03-25T15:20:37.031Z,11.10
2023-03-25T15:23:33.288Z,11.10
2023-03-25T15:26:05.010Z,11.20
2023-03-25T15:29:06.639Z,11.10
2023-03-25T15:31:55.517Z,11.20
2023-03-25T15:34:44.858Z,11.40
2023-03-25T15:37:46.643Z,11.40
2023-03-25T15:40:30.741Z,11.20
2023-03-25T15:43:18.796Z,11.30
2023-03-25T15:46:12.048Z,11.10
2023-03-25T15:49:14.184Z,11.20
2023-03-25T15:51:54.670Z,11.10
2023-03-25T15:54:36.805Z,11.20
2023-03-25T15:57:17.125Z,11.20
2023-03-25T15:59:47.933Z,11.20
2023-03-25T16:02:29.750Z,10.90
2023-03-25T16:04:58.341Z,10.90
2023-03-25T16:07:30.945Z,10.90
2023-03-25T16:10:10.596Z,10.80
2023-03-25T16:12:38.940Z,10.80
2023-03-25T16:15:08.592Z,10.50
2023-03-25T16:17:38.364Z,10.60
2023-03-25T16:20:09.622Z,10.50
2023-03-25T16:22:38.760Z,10.50
2023-03-25T16:25:14.259Z,10.50
2023-03-25T16:27:45.496Z,10.60
2023-03-25T16:30:25.296Z,10.50
2023-03-25T16:32:55.251Z,10.40
2023-03-25T16:35:26.044Z,10.40
2023-03-25T16:37:57.402Z,10.40
2023-03-25T16:40:30.090Z,10.30
2023-03-25T16:43:05.739Z,10.30
2023-03-25T16:45:35.312Z,10.30
2023-03-25T16:48:09.766Z,10.30
2023-03-25T16:50:39.704Z,10.30
2023-03-25T16:53:08.274Z,10.30
2023-03-25T16:55:47.305Z,10.30
2023-03-25T16:58:19.710Z,10.30
2023-03-25T17:00:50.201Z,10.20
2023-03-25T17:03:39.251Z,10.20
2023-03-25T17:06:19.491Z,10.00
2023-03-25T17:08:51.427Z,10.10
2023-03-25T17:11:21.009Z,10.10
2023-03-25T17:13:52.453Z,10.00
2023-03-25T17:16:22.504Z,10.10
2023-03-25T17:18:56.154Z,10.10
2023-03-25T17:21:28.063Z,10.00
2023-03-25T17:23:58.465Z,10.00
2023-03-25T17:26:29.947Z,9.90
2023-03-25T17:29:02.111Z,9.90
2023-03-25T17:31:34.118Z,9.80
2023-03-25T17:34:07.964Z,9.80
2023-03-25T17:36:38.177Z,9.70
2023-03-25T17:39:13.627Z,9.70
2023-03-25T17:41:42.202Z,9.70
2023-03-25T17:44:16.716Z,9.80
2023-03-25T17:46:46.042Z,9.70
2023-03-25T17:49:18.561Z,9.70
2023-03-25T17:51:47.759Z,9.60
2023-03-25T17:54:16.408Z,9.60
2023-03-25T17:56:46.909Z,9.60
2023-03-25T17:59:17.779Z,9.60
2023-03-25T18:01:47.856Z,9.60
2023-03-25T18:04:17.930Z,9.50
2023-03-25T18:06:46.289Z,9.40
2023-03-25T18:09:17.957Z,9.40
2023-03-25T18:11:47.196Z,9.40
2023-03-25T18:14:15.891Z,9.40
2023-03-25T18:16:44.204Z,9.40
2023-03-25T18:19:13.891Z,9.40
2023-03-25T18:21:44.184Z,9.40
2023-03-25T18:24:13.552Z,9.40
2023-03-25T18:26:44.313Z,9.30
2023-03-25T18:29:16.801Z,9.30
2023-03-25T18:31:45.358Z,9.30
2023-03-25T18:34:14.686Z,9.20
2023-03-25T18:36:45.578Z,9.20
2023-03-25T18:39:16.997Z,9.20
2023-03-25T18:41:45.924Z,9.30
2023-03-25T18:44:14.525Z,9.30
2023-03-25T18:46:43.394Z,9.30
2023-03-25T18:49:14.740Z,9.30
2023-03-25T18:51:44.762Z,9.20
2023-03-25T18:54:12.952Z,9.20
2023-03-25T18:56:42.622Z,9.20
2023-03-25T18:59:12.252Z,9.20
2023-03-25T19:01:40.744Z,9.20
2023-03-25T19:04:09.362Z,9.20
2023-03-25T19:06:40.684Z,9.30
2023-03-25T19:09:18.835Z,9.10
2023-03-25T19:11:48.221Z,8.80
2023-03-25T19:14:16.680Z,8.70
2023-03-25T19:16:57.136Z,8.60
2023-03-25T19:19:29.692Z,8.60
2023-03-25T19:21:58.366Z,8.60
2023-03-25T19:24:28.046Z,8.50
2023-03-25T19:26:57.228Z,8.50
2023-03-25T19:29:25.570Z,8.60
2023-03-25T19:31:53.787Z,8.60
2023-03-25T19:34:22.477Z,8.60
2023-03-25T19:36:50.641Z,8.60
2023-03-25T19:39:18.884Z,8.60
2023-03-25T19:41:49.512Z,8.60
2023-03-25T19:44:17.686Z,8.50
2023-03-25T19:46:45.890Z,8.50
2023-03-25T19:49:14.209Z,8.40
2023-03-25T19:51:43.151Z,8.40
2023-03-25T19:54:13.789Z,8.50
2023-03-25T19:56:42.305Z,8.50
2023-03-25T19:59:12.325Z,8.40
2023-03-25T20:01:41.587Z,8.40
2023-03-25T20:04:09.765Z,8.50
2023-03-25T20:06:38.541Z,8.40
2023-03-25T20:09:06.702Z,8.50
2023-03-25T20:11:34.969Z,8.30
2023-03-25T20:14:03.514Z,8.40
2023-03-25T20:16:35.159Z,8.40
2023-03-25T20:19:04.179Z,8.50
2023-03-25T20:21:32.482Z,8.40
2023-03-25T20:24:01.580Z,8.40
2023-03-25T20:26:30.301Z,8.40
2023-03-25T20:28:58.434Z,8.40
2023-03-25T20:31:26.999Z,8.40
2023-03-25T20:33:56.915Z,8.40
2023-03-25T20:36:25.158Z,8.40
2023-03-25T20:38:57.493Z,8.50
2023-03-25T20:41:26.487Z,8.50
2023-03-25T20:43:54.731Z,8.50
2023-03-25T20:46:27.598Z,8.40
2023-03-25T20:48:57.994Z,8.40
2023-03-25T20:51:27.006Z,8.50
2023-03-25T20:53:57.036Z,8.40
2023-03-25T20:56:25.677Z,8.50
2023-03-25T20:58:54.011Z,8.50
2023-03-25T21:01:22.616Z,8.50
2023-03-25T21:03:51.910Z,8.50
2023-03-25T21:06:25.399Z,8.50
2023-03-25T21:08:56.889Z,8.50
2023-03-25T21:11:26.719Z,8.50
2023-03-25T21:13:54.881Z,8.40
2023-03-25T21:16:23.118Z,8.40
2023-03-25T21:18:52.803Z,8.40
2023-03-25T21:21:24.336Z,8.30
2023-03-25T21:23:53.161Z,8.30
2023-03-25T21:26:25.911Z,8.20
2023-03-25T21:28:54.247Z,8.30
2023-03-25T21:31:24.078Z,8.20
2023-03-25T21:33:54.528Z,8.20
2023-03-25T21:36:25.903Z,8.20
2023-03-25T21:38:57.772Z,8.20
2023-03-25T21:41:26.728Z,8.20
2023-03-25T21:43:55.325Z,8.20
2023-03-25T21:46:27.481Z,8.10
2023-03-25T21:48:58.696Z,8.10
2023-03-25T21:51:30.773Z,8.20
2023-03-25T21:54:00.730Z,8.20
2023-03-25T21:56:31.446Z,8.10
2023-03-25T21:59:02.180Z,8.20
2023-03-25T22:01:32.444Z,8.10
2023-03-25T22:04:03.099Z,8.10
2023-03-25T22:06:35.811Z,8.10
2023-03-25T22:09:06.799Z,8.20
2023-03-25T22:11:37.682Z,8.20
2023-03-25T22:14:07.036Z,8.20
2023-03-25T22:16:35.862Z,8.20
2023-03-25T22:19:05.072Z,8.20
2023-03-25T22:21:37.389Z,8.20
2023-03-25T22:24:07.997Z,8.20
2023-03-25T22:26:39.378Z,8.20
2023-03-25T22:29:09.137Z,8.20
2023-03-25T22:31:39.920Z,8.20
2023-03-25T22:34:11.991Z,8.30
2023-03-25T22:36:46.477Z,8.30
2023-03-25T22:39:14.937Z,8.20
2023-03-25T22:41:43.557Z,8.30
2023-03-25T22:44:12.354Z,8.20
2023-03-25T22:46:41.299Z,8.20
2023-03-25T22:49:09.568Z,8.20
2023-03-25T22:51:38.201Z,8.20
2023-03-25T22:54:09.818Z,8.30
2023-03-25T22:56:38.847Z,8.20
2023-03-25T22:59:08.709Z,8.20
2023-03-25T23:01:37.165Z,8.20
2023-03-25T23:04:06.444Z,8.20
2023-03-25T23:06:36.143Z,8.20
2023-03-25T23:09:06.802Z,8.20
2023-03-25T23:11:38.007Z,8.20
2023-03-25T23:14:09.348Z,8.20
2023-03-25T23:16:39.280Z,8.20
2023-03-25T23:19:09.736Z,8.30
2023-03-25T23:21:38.593Z,8.30
2023-03-25T23:24:07.668Z,8.30
2023-03-25T23:26:39.445Z,8.20
2023-03-25T23:29:10.796Z,8.20
2023-03-25T23:31:41.492Z,8.30
2023-03-25T23:34:11.788Z,8.20
2023-03-25T23:36:40.946Z,8.20
2023-03-25T23:39:12.114Z,8.20
2023-03-25T23:41:42.080Z,8.20
2023-03-25T23:44:10.714Z,8.10
2023-03-25T23:46:39.507Z,8.20
2023-03-25T23:49:08.116Z,8.20
2023-03-25T23:51:38.404Z,8.20
2023-03-25T23:54:10.179Z,8.20
2023-03-25T23:56:39.891Z,8.20
2023-03-25T23:59:10.666Z,8.20
